sensor_id;sensor_type;location;lat;lon;timestamp;P1;durP1;ratioP1;P2;durP2;ratioP2
53293;SDS011;39181;53.440;5.644;2023-07-08T00:00:26;7.80;;;3.58;;
53293;SDS011;39181;53.440;5.644;2023-07-08T00:02:51;6.53;;;3.08;;
53293;SDS011;39181;53.440;5.644;2023-07-08T00:05:18;6.07;;;3.55;;
53293;SDS011;39181;53.440;5.644;2023-07-08T00:07:47;6.05;;;2.92;;
53293;SDS011;39181;53.440;5.644;2023-07-08T00:12:39;8.00;;;3.30;;
53293;SDS011;39181;53.440;5.644;2023-07-08T00:15:05;9.25;;;3.67;;
53293;SDS011;39181;53.440;5.644;2023-07-08T00:17:31;6.22;;;3.25;;
53293;SDS011;39181;53.440;5.644;2023-07-08T00:19:56;4.10;;;3.30;;
53293;SDS011;39181;53.440;5.644;2023-07-08T00:22:23;6.53;;;3.22;;
53293;SDS011;39181;53.440;5.644;2023-07-08T00:24:49;6.22;;;3.05;;
53293;SDS011;39181;53.440;5.644;2023-07-08T00:27:16;8.73;;;3.72;;
53293;SDS011;39181;53.440;5.644;2023-07-08T00:29:41;7.35;;;3.33;;
53293;SDS011;39181;53.440;5.644;2023-07-08T00:32:09;5.82;;;3.25;;
53293;SDS011;39181;53.440;5.644;2023-07-08T00:34:37;6.65;;;3.60;;
53293;SDS011;39181;53.440;5.644;2023-07-08T00:37:02;4.65;;;2.97;;
53293;SDS011;39181;53.440;5.644;2023-07-08T00:39:31;7.90;;;3.33;;
53293;SDS011;39181;53.440;5.644;2023-07-08T00:41:58;8.43;;;3.25;;
53293;SDS011;39181;53.440;5.644;2023-07-08T00:44:26;7.20;;;3.42;;
53293;SDS011;39181;53.440;5.644;2023-07-08T00:46:55;6.20;;;3.13;;
53293;SDS011;39181;53.440;5.644;2023-07-08T00:49:31;5.00;;;3.13;;
53293;SDS011;39181;53.440;5.644;2023-07-08T00:54:54;8.10;;;3.38;;
53293;SDS011;39181;53.440;5.644;2023-07-08T00:57:23;5.72;;;3.17;;
53293;SDS011;39181;53.440;5.644;2023-07-08T00:59:59;4.57;;;3.22;;
53293;SDS011;39181;53.440;5.644;2023-07-08T01:07:38;5.90;;;3.38;;
53293;SDS011;39181;53.440;5.644;2023-07-08T01:10:08;9.40;;;3.85;;
53293;SDS011;39181;53.440;5.644;2023-07-08T01:12:38;7.38;;;3.20;;
53293;SDS011;39181;53.440;5.644;2023-07-08T01:15:11;5.38;;;3.30;;
53293;SDS011;39181;53.440;5.644;2023-07-08T01:17:39;7.78;;;3.28;;
53293;SDS011;39181;53.440;5.644;2023-07-08T01:20:06;6.50;;;3.20;;
53293;SDS011;39181;53.440;5.644;2023-07-08T01:22:37;8.73;;;3.78;;
53293;SDS011;39181;53.440;5.644;2023-07-08T01:25:05;7.03;;;3.80;;
53293;SDS011;39181;53.440;5.644;2023-07-08T01:27:34;4.45;;;3.30;;
53293;SDS011;39181;53.440;5.644;2023-07-08T01:30:03;9.75;;;3.40;;
53293;SDS011;39181;53.440;5.644;2023-07-08T01:32:30;9.20;;;3.55;;
53293;SDS011;39181;53.440;5.644;2023-07-08T01:35:00;6.88;;;3.60;;
53293;SDS011;39181;53.440;5.644;2023-07-08T01:37:28;7.72;;;3.50;;
53293;SDS011;39181;53.440;5.644;2023-07-08T01:43:04;5.20;;;3.55;;
53293;SDS011;39181;53.440;5.644;2023-07-08T01:45:35;7.28;;;3.83;;
53293;SDS011;39181;53.440;5.644;2023-07-08T01:50:31;5.20;;;3.33;;
53293;SDS011;39181;53.440;5.644;2023-07-08T01:52:59;7.50;;;3.88;;
53293;SDS011;39181;53.440;5.644;2023-07-08T01:55:27;6.70;;;4.30;;
53293;SDS011;39181;53.440;5.644;2023-07-08T01:57:56;11.23;;;4.40;;
53293;SDS011;39181;53.440;5.644;2023-07-08T02:00:22;8.73;;;4.10;;
53293;SDS011;39181;53.440;5.644;2023-07-08T02:02:48;9.40;;;3.88;;
53293;SDS011;39181;53.440;5.644;2023-07-08T02:05:15;5.00;;;3.80;;
53293;SDS011;39181;53.440;5.644;2023-07-08T02:07:40;7.55;;;3.72;;
53293;SDS011;39181;53.440;5.644;2023-07-08T02:10:06;5.22;;;3.45;;
53293;SDS011;39181;53.440;5.644;2023-07-08T02:12:32;9.98;;;4.43;;
53293;SDS011;39181;53.440;5.644;2023-07-08T02:15:01;9.48;;;4.10;;
53293;SDS011;39181;53.440;5.644;2023-07-08T02:17:28;6.00;;;3.72;;
53293;SDS011;39181;53.440;5.644;2023-07-08T02:19:54;8.35;;;4.28;;
53293;SDS011;39181;53.440;5.644;2023-07-08T02:22:20;9.18;;;4.30;;
53293;SDS011;39181;53.440;5.644;2023-07-08T02:24:46;5.93;;;3.47;;
53293;SDS011;39181;53.440;5.644;2023-07-08T02:27:12;6.35;;;3.83;;
53293;SDS011;39181;53.440;5.644;2023-07-08T02:29:38;11.82;;;4.15;;
53293;SDS011;39181;53.440;5.644;2023-07-08T02:32:04;8.52;;;4.00;;
53293;SDS011;39181;53.440;5.644;2023-07-08T02:34:30;8.00;;;3.70;;
53293;SDS011;39181;53.440;5.644;2023-07-08T02:36:55;5.72;;;3.88;;
53293;SDS011;39181;53.440;5.644;2023-07-08T02:39:21;7.35;;;4.03;;
53293;SDS011;39181;53.440;5.644;2023-07-08T02:41:47;7.90;;;4.10;;
53293;SDS011;39181;53.440;5.644;2023-07-08T02:44:13;5.38;;;3.80;;
53293;SDS011;39181;53.440;5.644;2023-07-08T02:46:39;8.60;;;3.42;;
53293;SDS011;39181;53.440;5.644;2023-07-08T02:49:05;5.90;;;3.58;;
53293;SDS011;39181;53.440;5.644;2023-07-08T02:51:31;7.78;;;4.03;;
53293;SDS011;39181;53.440;5.644;2023-07-08T02:53:57;5.75;;;3.60;;
53293;SDS011;39181;53.440;5.644;2023-07-08T02:56:22;9.57;;;4.10;;
53293;SDS011;39181;53.440;5.644;2023-07-08T02:58:48;10.98;;;4.25;;
53293;SDS011;39181;53.440;5.644;2023-07-08T03:01:14;6.18;;;4.25;;
53293;SDS011;39181;53.440;5.644;2023-07-08T03:03:46;9.50;;;4.07;;
53293;SDS011;39181;53.440;5.644;2023-07-08T03:06:12;6.82;;;3.97;;
53293;SDS011;39181;53.440;5.644;2023-07-08T03:08:38;10.35;;;4.70;;
53293;SDS011;39181;53.440;5.644;2023-07-08T03:11:05;11.80;;;5.03;;
53293;SDS011;39181;53.440;5.644;2023-07-08T03:13:31;8.55;;;4.20;;
53293;SDS011;39181;53.440;5.644;2023-07-08T03:15:59;8.18;;;4.18;;
53293;SDS011;39181;53.440;5.644;2023-07-08T03:18:26;10.93;;;4.55;;
53293;SDS011;39181;53.440;5.644;2023-07-08T03:20:55;11.52;;;3.83;;
53293;SDS011;39181;53.440;5.644;2023-07-08T03:23:22;8.27;;;4.22;;
53293;SDS011;39181;53.440;5.644;2023-07-08T03:25:48;9.10;;;4.05;;
53293;SDS011;39181;53.440;5.644;2023-07-08T03:28:14;7.57;;;3.92;;
53293;SDS011;39181;53.440;5.644;2023-07-08T03:30:41;7.43;;;3.88;;
53293;SDS011;39181;53.440;5.644;2023-07-08T03:33:08;6.80;;;3.92;;
53293;SDS011;39181;53.440;5.644;2023-07-08T03:35:34;11.20;;;5.07;;
53293;SDS011;39181;53.440;5.644;2023-07-08T03:37:59;7.30;;;3.85;;
53293;SDS011;39181;53.440;5.644;2023-07-08T03:40:25;7.47;;;4.03;;
53293;SDS011;39181;53.440;5.644;2023-07-08T03:42:51;6.35;;;4.15;;
53293;SDS011;39181;53.440;5.644;2023-07-08T03:45:16;7.18;;;4.07;;
53293;SDS011;39181;53.440;5.644;2023-07-08T03:47:42;6.55;;;4.25;;
53293;SDS011;39181;53.440;5.644;2023-07-08T03:50:28;9.00;;;4.25;;
53293;SDS011;39181;53.440;5.644;2023-07-08T03:52:54;6.50;;;4.05;;
53293;SDS011;39181;53.440;5.644;2023-07-08T03:55:20;7.60;;;4.35;;
53293;SDS011;39181;53.440;5.644;2023-07-08T03:57:47;6.43;;;3.67;;
53293;SDS011;39181;53.440;5.644;2023-07-08T04:00:13;6.90;;;3.88;;
53293;SDS011;39181;53.440;5.644;2023-07-08T04:02:39;11.13;;;4.22;;
53293;SDS011;39181;53.440;5.644;2023-07-08T04:05:06;9.00;;;4.28;;
53293;SDS011;39181;53.440;5.644;2023-07-08T04:07:35;7.28;;;3.88;;
53293;SDS011;39181;53.440;5.644;2023-07-08T04:10:01;7.57;;;4.20;;
53293;SDS011;39181;53.440;5.644;2023-07-08T04:12:27;10.30;;;4.43;;
53293;SDS011;39181;53.440;5.644;2023-07-08T04:14:52;7.45;;;3.75;;
53293;SDS011;39181;53.440;5.644;2023-07-08T04:17:18;6.93;;;4.45;;
53293;SDS011;39181;53.440;5.644;2023-07-08T04:19:44;7.70;;;4.63;;
53293;SDS011;39181;53.440;5.644;2023-07-08T04:22:10;8.15;;;4.10;;
53293;SDS011;39181;53.440;5.644;2023-07-08T04:24:36;7.63;;;3.70;;
53293;SDS011;39181;53.440;5.644;2023-07-08T04:27:02;8.25;;;4.55;;
53293;SDS011;39181;53.440;5.644;2023-07-08T04:29:28;6.97;;;4.45;;
53293;SDS011;39181;53.440;5.644;2023-07-08T04:31:53;8.13;;;4.03;;
53293;SDS011;39181;53.440;5.644;2023-07-08T04:34:19;6.35;;;3.53;;
53293;SDS011;39181;53.440;5.644;2023-07-08T04:36:45;6.97;;;3.97;;
53293;SDS011;39181;53.440;5.644;2023-07-08T04:39:12;6.35;;;3.88;;
53293;SDS011;39181;53.440;5.644;2023-07-08T04:41:39;9.52;;;3.72;;
53293;SDS011;39181;53.440;5.644;2023-07-08T04:44:06;8.40;;;3.53;;
53293;SDS011;39181;53.440;5.644;2023-07-08T04:46:45;5.65;;;3.80;;
53293;SDS011;39181;53.440;5.644;2023-07-08T04:49:18;6.78;;;3.92;;
53293;SDS011;39181;53.440;5.644;2023-07-08T04:51:43;8.80;;;3.80;;
53293;SDS011;39181;53.440;5.644;2023-07-08T04:54:09;6.38;;;4.15;;
53293;SDS011;39181;53.440;5.644;2023-07-08T04:56:40;4.35;;;3.80;;
53293;SDS011;39181;53.440;5.644;2023-07-08T04:59:10;7.63;;;3.20;;
53293;SDS011;39181;53.440;5.644;2023-07-08T05:01:38;8.95;;;4.10;;
53293;SDS011;39181;53.440;5.644;2023-07-08T05:04:05;8.75;;;3.53;;
53293;SDS011;39181;53.440;5.644;2023-07-08T05:06:31;7.38;;;3.75;;
53293;SDS011;39181;53.440;5.644;2023-07-08T05:09:00;8.00;;;3.60;;
53293;SDS011;39181;53.440;5.644;2023-07-08T05:11:27;7.57;;;3.95;;
53293;SDS011;39181;53.440;5.644;2023-07-08T05:13:53;6.32;;;3.53;;
53293;SDS011;39181;53.440;5.644;2023-07-08T05:16:19;5.07;;;3.65;;
53293;SDS011;39181;53.440;5.644;2023-07-08T05:18:45;5.70;;;3.22;;
53293;SDS011;39181;53.440;5.644;2023-07-08T05:21:11;6.63;;;3.85;;
53293;SDS011;39181;53.440;5.644;2023-07-08T05:23:37;11.02;;;3.47;;
53293;SDS011;39181;53.440;5.644;2023-07-08T05:26:03;11.10;;;3.92;;
53293;SDS011;39181;53.440;5.644;2023-07-08T05:28:30;4.55;;;3.42;;
53293;SDS011;39181;53.440;5.644;2023-07-08T05:30:56;4.97;;;3.00;;
53293;SDS011;39181;53.440;5.644;2023-07-08T05:33:26;5.97;;;3.42;;
53293;SDS011;39181;53.440;5.644;2023-07-08T05:35:53;5.63;;;3.38;;
53293;SDS011;39181;53.440;5.644;2023-07-08T05:38:19;6.32;;;3.75;;
53293;SDS011;39181;53.440;5.644;2023-07-08T05:40:53;6.35;;;3.47;;
53293;SDS011;39181;53.440;5.644;2023-07-08T05:43:20;8.05;;;3.63;;
53293;SDS011;39181;53.440;5.644;2023-07-08T05:45:46;5.50;;;3.50;;
53293;SDS011;39181;53.440;5.644;2023-07-08T05:48:12;6.32;;;3.65;;
53293;SDS011;39181;53.440;5.644;2023-07-08T05:50:38;6.57;;;3.20;;
53293;SDS011;39181;53.440;5.644;2023-07-08T05:53:05;6.90;;;3.95;;
53293;SDS011;39181;53.440;5.644;2023-07-08T05:55:31;5.82;;;3.22;;
53293;SDS011;39181;53.440;5.644;2023-07-08T05:57:57;6.88;;;3.58;;
53293;SDS011;39181;53.440;5.644;2023-07-08T06:00:23;4.47;;;3.17;;
53293;SDS011;39181;53.440;5.644;2023-07-08T06:02:48;9.27;;;3.75;;
53293;SDS011;39181;53.440;5.644;2023-07-08T06:05:14;6.47;;;3.70;;
53293;SDS011;39181;53.440;5.644;2023-07-08T06:07:40;5.38;;;3.40;;
53293;SDS011;39181;53.440;5.644;2023-07-08T06:10:06;7.78;;;3.30;;
53293;SDS011;39181;53.440;5.644;2023-07-08T06:12:32;6.68;;;3.58;;
53293;SDS011;39181;53.440;5.644;2023-07-08T06:14:57;6.03;;;3.60;;
53293;SDS011;39181;53.440;5.644;2023-07-08T06:17:23;6.38;;;3.50;;
53293;SDS011;39181;53.440;5.644;2023-07-08T06:19:49;5.47;;;3.30;;
53293;SDS011;39181;53.440;5.644;2023-07-08T06:22:15;9.98;;;3.75;;
53293;SDS011;39181;53.440;5.644;2023-07-08T06:24:40;8.55;;;4.03;;
53293;SDS011;39181;53.440;5.644;2023-07-08T06:27:06;7.82;;;3.97;;
53293;SDS011;39181;53.440;5.644;2023-07-08T06:29:32;6.10;;;3.63;;
53293;SDS011;39181;53.440;5.644;2023-07-08T06:31:59;7.03;;;3.53;;
53293;SDS011;39181;53.440;5.644;2023-07-08T06:34:25;5.65;;;3.50;;
53293;SDS011;39181;53.440;5.644;2023-07-08T06:36:51;7.35;;;3.67;;
53293;SDS011;39181;53.440;5.644;2023-07-08T06:39:16;4.32;;;3.35;;
53293;SDS011;39181;53.440;5.644;2023-07-08T06:41:43;7.32;;;3.53;;
53293;SDS011;39181;53.440;5.644;2023-07-08T06:44:08;6.50;;;2.90;;
53293;SDS011;39181;53.440;5.644;2023-07-08T06:46:34;10.45;;;4.22;;
53293;SDS011;39181;53.440;5.644;2023-07-08T06:49:00;9.02;;;3.78;;
53293;SDS011;39181;53.440;5.644;2023-07-08T06:51:26;5.97;;;3.10;;
53293;SDS011;39181;53.440;5.644;2023-07-08T06:53:52;9.27;;;4.03;;
53293;SDS011;39181;53.440;5.644;2023-07-08T06:56:18;7.18;;;3.55;;
53293;SDS011;39181;53.440;5.644;2023-07-08T06:58:43;5.30;;;2.70;;
53293;SDS011;39181;53.440;5.644;2023-07-08T07:01:09;8.02;;;3.97;;
53293;SDS011;39181;53.440;5.644;2023-07-08T07:03:35;5.00;;;2.67;;
53293;SDS011;39181;53.440;5.644;2023-07-08T07:06:01;6.38;;;3.20;;
53293;SDS011;39181;53.440;5.644;2023-07-08T07:08:26;7.15;;;3.17;;
53293;SDS011;39181;53.440;5.644;2023-07-08T07:10:52;7.30;;;3.20;;
53293;SDS011;39181;53.440;5.644;2023-07-08T07:13:18;6.75;;;3.08;;
53293;SDS011;39181;53.440;5.644;2023-07-08T07:15:43;7.15;;;2.97;;
53293;SDS011;39181;53.440;5.644;2023-07-08T07:18:09;5.25;;;2.92;;
53293;SDS011;39181;53.440;5.644;2023-07-08T07:20:36;5.50;;;2.75;;
53293;SDS011;39181;53.440;5.644;2023-07-08T07:23:02;4.22;;;3.05;;
53293;SDS011;39181;53.440;5.644;2023-07-08T07:25:28;5.50;;;3.35;;
53293;SDS011;39181;53.440;5.644;2023-07-08T07:27:54;4.95;;;3.00;;
53293;SDS011;39181;53.440;5.644;2023-07-08T07:30:19;6.85;;;3.10;;
53293;SDS011;39181;53.440;5.644;2023-07-08T07:32:45;3.90;;;2.35;;
53293;SDS011;39181;53.440;5.644;2023-07-08T07:35:11;6.22;;;2.83;;
53293;SDS011;39181;53.440;5.644;2023-07-08T07:37:39;6.40;;;3.17;;
53293;SDS011;39181;53.440;5.644;2023-07-08T07:40:07;5.18;;;2.92;;
53293;SDS011;39181;53.440;5.644;2023-07-08T07:42:37;3.30;;;2.60;;
53293;SDS011;39181;53.440;5.644;2023-07-08T07:45:04;6.03;;;2.97;;
53293;SDS011;39181;53.440;5.644;2023-07-08T07:47:30;3.60;;;3.00;;
53293;SDS011;39181;53.440;5.644;2023-07-08T07:49:56;3.95;;;2.60;;
53293;SDS011;39181;53.440;5.644;2023-07-08T07:52:22;4.85;;;3.08;;
53293;SDS011;39181;53.440;5.644;2023-07-08T07:54:49;6.32;;;2.67;;
53293;SDS011;39181;53.440;5.644;2023-07-08T07:57:16;6.47;;;2.97;;
53293;SDS011;39181;53.440;5.644;2023-07-08T07:59:42;3.22;;;2.58;;
53293;SDS011;39181;53.440;5.644;2023-07-08T08:02:08;8.38;;;3.47;;
53293;SDS011;39181;53.440;5.644;2023-07-08T08:04:33;5.70;;;2.80;;
53293;SDS011;39181;53.440;5.644;2023-07-08T08:06:59;5.57;;;3.05;;
53293;SDS011;39181;53.440;5.644;2023-07-08T08:09:25;5.88;;;3.17;;
53293;SDS011;39181;53.440;5.644;2023-07-08T08:11:51;6.15;;;3.28;;
53293;SDS011;39181;53.440;5.644;2023-07-08T08:14:17;6.65;;;3.60;;
53293;SDS011;39181;53.440;5.644;2023-07-08T08:16:43;6.07;;;3.17;;
53293;SDS011;39181;53.440;5.644;2023-07-08T08:19:09;6.85;;;3.03;;
53293;SDS011;39181;53.440;5.644;2023-07-08T08:21:35;6.05;;;3.35;;
53293;SDS011;39181;53.440;5.644;2023-07-08T08:24:00;9.15;;;3.47;;
53293;SDS011;39181;53.440;5.644;2023-07-08T08:26:26;7.25;;;3.05;;
53293;SDS011;39181;53.440;5.644;2023-07-08T08:28:52;7.15;;;3.15;;
53293;SDS011;39181;53.440;5.644;2023-07-08T08:31:17;5.18;;;3.00;;
53293;SDS011;39181;53.440;5.644;2023-07-08T08:33:43;7.20;;;2.70;;
53293;SDS011;39181;53.440;5.644;2023-07-08T08:36:09;6.30;;;3.17;;
53293;SDS011;39181;53.440;5.644;2023-07-08T08:38:34;7.55;;;2.90;;
53293;SDS011;39181;53.440;5.644;2023-07-08T08:41:11;7.03;;;3.00;;
53293;SDS011;39181;53.440;5.644;2023-07-08T08:43:39;5.32;;;2.95;;
53293;SDS011;39181;53.440;5.644;2023-07-08T08:46:09;7.82;;;3.35;;
53293;SDS011;39181;53.440;5.644;2023-07-08T08:49:15;3.65;;;3.03;;
53293;SDS011;39181;53.440;5.644;2023-07-08T08:51:45;5.03;;;2.55;;
53293;SDS011;39181;53.440;5.644;2023-07-08T08:54:12;9.13;;;2.85;;
53293;SDS011;39181;53.440;5.644;2023-07-08T08:59:24;4.60;;;2.83;;
53293;SDS011;39181;53.440;5.644;2023-07-08T09:04:55;3.28;;;2.50;;
53293;SDS011;39181;53.440;5.644;2023-07-08T09:07:26;5.35;;;2.60;;
53293;SDS011;39181;53.440;5.644;2023-07-08T09:10:01;7.97;;;3.05;;
53293;SDS011;39181;53.440;5.644;2023-07-08T09:12:32;5.97;;;2.92;;
53293;SDS011;39181;53.440;5.644;2023-07-08T09:14:59;5.47;;;2.78;;
53293;SDS011;39181;53.440;5.644;2023-07-08T09:17:30;4.43;;;2.90;;
53293;SDS011;39181;53.440;5.644;2023-07-08T09:22:38;5.85;;;2.80;;
53293;SDS011;39181;53.440;5.644;2023-07-08T09:25:23;5.07;;;2.80;;
53293;SDS011;39181;53.440;5.644;2023-07-08T09:27:54;3.45;;;2.47;;
53293;SDS011;39181;53.440;5.644;2023-07-08T09:30:21;4.10;;;2.85;;
53293;SDS011;39181;53.440;5.644;2023-07-08T09:32:47;4.95;;;2.75;;
53293;SDS011;39181;53.440;5.644;2023-07-08T09:35:25;5.40;;;2.50;;
53293;SDS011;39181;53.440;5.644;2023-07-08T09:37:52;5.53;;;2.80;;
53293;SDS011;39181;53.440;5.644;2023-07-08T09:40:21;4.70;;;2.42;;
53293;SDS011;39181;53.440;5.644;2023-07-08T09:45:51;4.60;;;2.72;;
53293;SDS011;39181;53.440;5.644;2023-07-08T09:48:25;5.22;;;2.90;;
53293;SDS011;39181;53.440;5.644;2023-07-08T09:50:53;5.43;;;2.85;;
53293;SDS011;39181;53.440;5.644;2023-07-08T09:53:22;11.60;;;3.72;;
53293;SDS011;39181;53.440;5.644;2023-07-08T09:55:49;8.43;;;3.08;;
53293;SDS011;39181;53.440;5.644;2023-07-08T09:58:24;8.25;;;3.28;;
53293;SDS011;39181;53.440;5.644;2023-07-08T10:00:55;9.80;;;3.00;;
53293;SDS011;39181;53.440;5.644;2023-07-08T10:03:35;6.72;;;2.70;;
53293;SDS011;39181;53.440;5.644;2023-07-08T10:06:16;8.40;;;3.47;;
53293;SDS011;39181;53.440;5.644;2023-07-08T10:08:53;6.75;;;2.95;;
53293;SDS011;39181;53.440;5.644;2023-07-08T10:11:23;6.57;;;2.80;;
53293;SDS011;39181;53.440;5.644;2023-07-08T10:13:51;10.68;;;2.63;;
53293;SDS011;39181;53.440;5.644;2023-07-08T10:16:32;7.15;;;2.95;;
53293;SDS011;39181;53.440;5.644;2023-07-08T10:18:59;7.47;;;2.65;;
53293;SDS011;39181;53.440;5.644;2023-07-08T10:26:31;6.55;;;2.95;;
53293;SDS011;39181;53.440;5.644;2023-07-08T10:29:20;6.28;;;2.75;;
53293;SDS011;39181;53.440;5.644;2023-07-08T10:32:28;10.63;;;2.80;;
53293;SDS011;39181;53.440;5.644;2023-07-08T10:35:08;5.85;;;2.63;;
53293;SDS011;39181;53.440;5.644;2023-07-08T10:38:06;5.65;;;2.60;;
53293;SDS011;39181;53.440;5.644;2023-07-08T10:46:12;6.05;;;3.25;;
53293;SDS011;39181;53.440;5.644;2023-07-08T10:54:45;7.43;;;2.80;;
53293;SDS011;39181;53.440;5.644;2023-07-08T10:57:36;9.57;;;3.10;;
53293;SDS011;39181;53.440;5.644;2023-07-08T11:00:41;9.27;;;2.67;;
53293;SDS011;39181;53.440;5.644;2023-07-08T11:03:18;11.50;;;2.75;;
53293;SDS011;39181;53.440;5.644;2023-07-08T11:06:11;8.63;;;2.72;;
53293;SDS011;39181;53.440;5.644;2023-07-08T11:08:45;6.57;;;3.17;;
53293;SDS011;39181;53.440;5.644;2023-07-08T11:11:36;12.93;;;3.92;;
53293;SDS011;39181;53.440;5.644;2023-07-08T11:14:25;12.02;;;2.63;;
53293;SDS011;39181;53.440;5.644;2023-07-08T11:20:44;9.90;;;3.10;;
53293;SDS011;39181;53.440;5.644;2023-07-08T11:23:01;9.55;;;3.17;;
53293;SDS011;39181;53.440;5.644;2023-07-08T11:25:33;7.55;;;2.88;;
53293;SDS011;39181;53.440;5.644;2023-07-08T11:28:01;9.20;;;2.90;;
53293;SDS011;39181;53.440;5.644;2023-07-08T11:30:31;10.82;;;3.08;;
53293;SDS011;39181;53.440;5.644;2023-07-08T11:33:04;6.72;;;3.03;;
53293;SDS011;39181;53.440;5.644;2023-07-08T11:38:03;11.20;;;3.55;;
53293;SDS011;39181;53.440;5.644;2023-07-08T11:40:30;9.40;;;3.08;;
53293;SDS011;39181;53.440;5.644;2023-07-08T11:43:02;9.05;;;3.22;;
53293;SDS011;39181;53.440;5.644;2023-07-08T11:45:37;11.32;;;3.22;;
53293;SDS011;39181;53.440;5.644;2023-07-08T11:50:38;12.20;;;3.50;;
53293;SDS011;39181;53.440;5.644;2023-07-08T11:53:08;14.85;;;3.15;;
53293;SDS011;39181;53.440;5.644;2023-07-08T11:55:43;12.57;;;3.20;;
53293;SDS011;39181;53.440;5.644;2023-07-08T11:58:27;12.70;;;3.80;;
53293;SDS011;39181;53.440;5.644;2023-07-08T12:03:39;12.13;;;3.17;;
53293;SDS011;39181;53.440;5.644;2023-07-08T12:08:54;12.80;;;3.55;;
53293;SDS011;39181;53.440;5.644;2023-07-08T12:11:28;11.75;;;3.17;;
53293;SDS011;39181;53.440;5.644;2023-07-08T12:13:58;12.48;;;3.63;;
53293;SDS011;39181;53.440;5.644;2023-07-08T12:16:26;15.57;;;3.50;;
53293;SDS011;39181;53.440;5.644;2023-07-08T12:18:53;11.82;;;3.42;;
53293;SDS011;39181;53.440;5.644;2023-07-08T12:21:22;11.75;;;3.38;;
53293;SDS011;39181;53.440;5.644;2023-07-08T12:23:51;10.43;;;3.22;;
53293;SDS011;39181;53.440;5.644;2023-07-08T12:26:17;10.75;;;3.67;;
53293;SDS011;39181;53.440;5.644;2023-07-08T12:28:42;12.55;;;3.67;;
53293;SDS011;39181;53.440;5.644;2023-07-08T12:33:41;10.70;;;3.33;;
53293;SDS011;39181;53.440;5.644;2023-07-08T12:36:09;13.68;;;3.55;;
53293;SDS011;39181;53.440;5.644;2023-07-08T12:38:40;9.07;;;3.42;;
53293;SDS011;39181;53.440;5.644;2023-07-08T12:41:11;15.55;;;3.33;;
53293;SDS011;39181;53.440;5.644;2023-07-08T12:43:39;11.13;;;4.10;;
53293;SDS011;39181;53.440;5.644;2023-07-08T12:46:05;11.30;;;4.07;;
53293;SDS011;39181;53.440;5.644;2023-07-08T12:48:34;9.05;;;3.80;;
53293;SDS011;39181;53.440;5.644;2023-07-08T12:50:59;16.70;;;4.40;;
53293;SDS011;39181;53.440;5.644;2023-07-08T12:53:25;13.68;;;4.03;;
53293;SDS011;39181;53.440;5.644;2023-07-08T12:55:51;15.38;;;4.03;;
53293;SDS011;39181;53.440;5.644;2023-07-08T12:58:22;13.57;;;4.00;;
53293;SDS011;39181;53.440;5.644;2023-07-08T13:00:59;13.73;;;4.30;;
53293;SDS011;39181;53.440;5.644;2023-07-08T13:03:29;13.38;;;4.30;;
53293;SDS011;39181;53.440;5.644;2023-07-08T13:05:59;14.73;;;4.78;;
53293;SDS011;39181;53.440;5.644;2023-07-08T13:08:27;15.30;;;4.00;;
53293;SDS011;39181;53.440;5.644;2023-07-08T13:10:59;14.88;;;4.28;;
53293;SDS011;39181;53.440;5.644;2023-07-08T13:13:28;14.25;;;4.28;;
53293;SDS011;39181;53.440;5.644;2023-07-08T13:15:56;9.77;;;4.05;;
53293;SDS011;39181;53.440;5.644;2023-07-08T13:18:40;10.75;;;4.03;;
53293;SDS011;39181;53.440;5.644;2023-07-08T13:21:08;14.32;;;3.97;;
53293;SDS011;39181;53.440;5.644;2023-07-08T13:23:37;15.27;;;4.05;;
53293;SDS011;39181;53.440;5.644;2023-07-08T13:26:16;10.60;;;4.45;;
53293;SDS011;39181;53.440;5.644;2023-07-08T13:28:44;11.77;;;3.88;;
53293;SDS011;39181;53.440;5.644;2023-07-08T13:33:52;15.18;;;4.20;;
53293;SDS011;39181;53.440;5.644;2023-07-08T13:36:21;13.40;;;4.18;;
53293;SDS011;39181;53.440;5.644;2023-07-08T13:38:56;9.48;;;3.60;;
53293;SDS011;39181;53.440;5.644;2023-07-08T13:41:22;14.70;;;4.72;;
53293;SDS011;39181;53.440;5.644;2023-07-08T13:43:49;15.25;;;4.70;;
53293;SDS011;39181;53.440;5.644;2023-07-08T13:46:28;12.60;;;4.35;;
53293;SDS011;39181;53.440;5.644;2023-07-08T13:49:11;16.50;;;4.13;;
53293;SDS011;39181;53.440;5.644;2023-07-08T13:51:39;12.02;;;3.72;;
53293;SDS011;39181;53.440;5.644;2023-07-08T13:54:17;9.50;;;3.22;;
53293;SDS011;39181;53.440;5.644;2023-07-08T13:56:49;14.75;;;4.57;;
53293;SDS011;39181;53.440;5.644;2023-07-08T13:59:18;17.02;;;3.90;;
53293;SDS011;39181;53.440;5.644;2023-07-08T14:01:48;13.13;;;4.13;;
53293;SDS011;39181;53.440;5.644;2023-07-08T14:04:18;11.15;;;4.18;;
53293;SDS011;39181;53.440;5.644;2023-07-08T14:06:45;13.48;;;4.65;;
53293;SDS011;39181;53.440;5.644;2023-07-08T14:09:18;10.95;;;4.10;;
53293;SDS011;39181;53.440;5.644;2023-07-08T14:11:45;11.63;;;4.22;;
53293;SDS011;39181;53.440;5.644;2023-07-08T14:14:12;9.38;;;3.30;;
53293;SDS011;39181;53.440;5.644;2023-07-08T14:16:42;16.05;;;3.88;;
53293;SDS011;39181;53.440;5.644;2023-07-08T14:19:12;12.07;;;4.03;;
53293;SDS011;39181;53.440;5.644;2023-07-08T14:21:40;13.32;;;4.00;;
53293;SDS011;39181;53.440;5.644;2023-07-08T14:24:13;8.90;;;3.72;;
53293;SDS011;39181;53.440;5.644;2023-07-08T14:26:43;11.18;;;3.72;;
53293;SDS011;39181;53.440;5.644;2023-07-08T14:29:09;15.40;;;4.32;;
53293;SDS011;39181;53.440;5.644;2023-07-08T14:31:35;11.88;;;3.65;;
53293;SDS011;39181;53.440;5.644;2023-07-08T14:34:02;11.02;;;3.67;;
53293;SDS011;39181;53.440;5.644;2023-07-08T14:36:32;10.73;;;4.00;;
53293;SDS011;39181;53.440;5.644;2023-07-08T14:38:58;12.85;;;3.35;;
53293;SDS011;39181;53.440;5.644;2023-07-08T14:41:25;13.50;;;3.85;;
53293;SDS011;39181;53.440;5.644;2023-07-08T14:43:51;9.90;;;4.10;;
53293;SDS011;39181;53.440;5.644;2023-07-08T14:46:17;13.57;;;3.60;;
53293;SDS011;39181;53.440;5.644;2023-07-08T14:48:43;12.57;;;3.88;;
53293;SDS011;39181;53.440;5.644;2023-07-08T14:51:09;11.65;;;3.42;;
53293;SDS011;39181;53.440;5.644;2023-07-08T14:53:35;12.27;;;4.10;;
53293;SDS011;39181;53.440;5.644;2023-07-08T14:56:01;12.52;;;3.60;;
53293;SDS011;39181;53.440;5.644;2023-07-08T14:58:33;12.57;;;3.17;;
53293;SDS011;39181;53.440;5.644;2023-07-08T15:00:59;16.83;;;3.67;;
53293;SDS011;39181;53.440;5.644;2023-07-08T15:03:32;11.45;;;3.58;;
53293;SDS011;39181;53.440;5.644;2023-07-08T15:05:58;13.40;;;3.53;;
53293;SDS011;39181;53.440;5.644;2023-07-08T15:08:24;12.00;;;3.92;;
53293;SDS011;39181;53.440;5.644;2023-07-08T15:10:50;15.57;;;3.97;;
53293;SDS011;39181;53.440;5.644;2023-07-08T15:13:17;11.50;;;3.45;;
53293;SDS011;39181;53.440;5.644;2023-07-08T15:15:45;13.57;;;4.03;;
53293;SDS011;39181;53.440;5.644;2023-07-08T15:18:13;12.60;;;3.78;;
53293;SDS011;39181;53.440;5.644;2023-07-08T15:20:42;9.55;;;3.55;;
53293;SDS011;39181;53.440;5.644;2023-07-08T15:23:12;13.73;;;4.00;;
53293;SDS011;39181;53.440;5.644;2023-07-08T15:25:37;8.80;;;3.40;;
53293;SDS011;39181;53.440;5.644;2023-07-08T15:28:07;12.30;;;3.35;;
53293;SDS011;39181;53.440;5.644;2023-07-08T15:30:44;12.43;;;3.65;;
53293;SDS011;39181;53.440;5.644;2023-07-08T15:33:13;13.55;;;3.40;;
53293;SDS011;39181;53.440;5.644;2023-07-08T15:35:40;10.23;;;3.45;;
53293;SDS011;39181;53.440;5.644;2023-07-08T15:38:07;9.43;;;3.47;;
53293;SDS011;39181;53.440;5.644;2023-07-08T15:40:35;13.70;;;4.13;;
53293;SDS011;39181;53.440;5.644;2023-07-08T15:43:04;13.55;;;3.53;;
53293;SDS011;39181;53.440;5.644;2023-07-08T15:45:32;9.20;;;3.47;;
53293;SDS011;39181;53.440;5.644;2023-07-08T15:47:59;12.80;;;3.97;;
53293;SDS011;39181;53.440;5.644;2023-07-08T15:50:26;9.73;;;3.03;;
53293;SDS011;39181;53.440;5.644;2023-07-08T15:52:53;13.85;;;3.55;;
53293;SDS011;39181;53.440;5.644;2023-07-08T15:55:23;12.57;;;3.97;;